Time;durP1;ratioP1;P1;durP2;ratioP2;P2;SDS_P1;SDS_P2;PMS_P1;PMS_P2;Temp;Humidity;BMP_temperature;BMP_pressure;BME280_temperature;BME280_humidity;BME280_pressure;Samples;Min_cycle;Max_cycle;Signal;HPM_P1;HPM_P2
2021/05/30 00:02:05;;;;;;;18.70;12.45;;;10.50;99.90;;;;;;5039236;28;20051;-85
2021/05/30 00:04:33;;;;;;;17.00;12.20;;;11.00;99.90;;;;;;5044547;28;20045;-85
2021/05/30 00:06:58;;;;;;;21.90;13.90;;;11.10;99.90;;;;;;5041927;28;20415;-85
2021/05/30 00:09:24;;;;;;;20.48;11.88;;;10.50;99.90;;;;;;5040653;28;20473;-84
2021/05/30 00:11:50;;;;;;;23.33;14.13;;;10.50;99.90;;;;;;5025154;28;20033;-85
2021/05/30 00:14:17;;;;;;;20.15;12.40;;;10.50;99.90;;;;;;5044401;28;20055;-86
2021/05/30 00:16:43;;;;;;;21.08;11.38;;;10.50;99.90;;;;;;5039938;28;20040;-85
2021/05/30 00:19:08;;;;;;;17.98;11.32;;;10.50;99.90;;;;;;5041109;28;20041;-85
2021/05/30 00:21:34;;;;;;;16.60;10.82;;;10.50;99.90;;;;;;5026261;28;20667;-86
2021/05/30 00:24:00;;;;;;;14.40;10.05;;;10.50;99.90;;;;;;5040109;28;20040;-85
2021/05/30 00:26:26;;;;;;;12.00;8.88;;;10.50;99.90;;;;;;5040117;28;20483;-84
2021/05/30 00:28:51;;;;;;;16.67;9.40;;;10.50;99.90;;;;;;5041930;28;20111;-84
2021/05/30 00:31:17;;;;;;;18.80;10.57;;;10.50;99.90;;;;;;5041331;28;20498;-85
2021/05/30 00:33:45;;;;;;;18.45;9.00;;;10.50;99.90;;;;;;5040390;28;20033;-85
2021/05/30 00:36:11;;;;;;;17.95;8.70;;;10.50;99.90;;;;;;5041845;28;20168;-85
2021/05/30 00:38:37;;;;;;;16.15;8.95;;;10.50;99.90;;;;;;5027141;28;20049;-85
2021/05/30 00:41:03;;;;;;;21.23;9.52;;;10.50;99.90;;;;;;5040952;28;20037;-84
2021/05/30 00:43:28;;;;;;;18.30;10.70;;;10.50;99.90;;;;;;5039218;28;20412;-85
2021/05/30 00:45:54;;;;;;;16.67;9.95;;;10.40;99.90;;;;;;5042379;28;20845;-85
2021/05/30 00:48:20;;;;;;;17.70;8.55;;;10.50;99.90;;;;;;5039748;28;20033;-86
2021/05/30 00:50:45;;;;;;;16.75;9.43;;;10.40;99.90;;;;;;5040802;28;20565;-85
2021/05/30 00:53:11;;;;;;;15.27;8.80;;;10.50;99.90;;;;;;5044616;28;20144;-85
2021/05/30 00:55:37;;;;;;;22.10;11.75;;;10.50;99.90;;;;;;5042806;28;20045;-85
2021/05/30 00:58:03;;;;;;;18.85;10.68;;;10.50;99.90;;;;;;5042236;28;20755;-86
2021/05/30 01:00:29;;;;;;;16.30;10.32;;;10.40;99.90;;;;;;5041963;28;20631;-86
2021/05/30 01:02:55;;;;;;;14.85;10.40;;;10.40;99.90;;;;;;5025681;28;20056;-86
2021/05/30 01:05:21;;;;;;;17.75;10.73;;;10.40;99.90;;;;;;5039542;28;20419;-86
2021/05/30 01:07:47;;;;;;;16.88;10.63;;;10.60;99.90;;;;;;5026571;28;20041;-86
2021/05/30 01:10:20;;;;;;;17.98;10.77;;;10.90;99.90;;;;;;5025143;28;20041;-86
2021/05/30 01:12:48;;;;;;;18.58;12.88;;;10.30;99.90;;;;;;5044675;28;20032;-85
2021/05/30 01:15:16;;;;;;;22.98;12.07;;;10.30;99.90;;;;;;5045576;28;20040;-85
2021/05/30 01:17:43;;;;;;;15.35;11.25;;;10.30;99.90;;;;;;5043577;28;20040;-85
2021/05/30 01:20:13;;;;;;;13.65;10.65;;;10.30;99.90;;;;;;5027671;28;20521;-85
2021/05/30 01:22:40;;;;;;;24.02;13.18;;;10.20;99.90;;;;;;5044457;28;20707;-85
2021/05/30 01:25:07;;;;;;;21.23;13.63;;;10.30;99.90;;;;;;5045782;28;20037;-86
2021/05/30 01:27:32;;;;;;;19.73;12.73;;;10.20;99.90;;;;;;5045866;28;20460;-85
2021/05/30 01:29:58;;;;;;;22.55;11.85;;;10.20;99.90;;;;;;5042666;28;20091;-85
2021/05/30 01:32:24;;;;;;;24.33;14.13;;;10.40;99.90;;;;;;5028938;28;20037;-85
2021/05/30 01:34:49;;;;;;;27.90;15.75;;;10.20;99.90;;;;;;5045565;28;20421;-85
2021/05/30 01:37:15;;;;;;;23.60;13.05;;;10.20;99.90;;;;;;5044661;28;22506;-85
2021/05/30 01:39:41;;;;;;;19.20;12.48;;;10.20;99.90;;;;;;5045487;28;20033;-86
2021/05/30 01:42:07;;;;;;;20.42;14.45;;;10.20;99.90;;;;;;5047432;28;20419;-87
2021/05/30 01:44:32;;;;;;;18.30;14.23;;;10.20;99.90;;;;;;5046016;28;20075;-85
2021/05/30 01:46:58;;;;;;;19.70;14.48;;;10.20;99.90;;;;;;5043457;28;20034;-85
2021/05/30 01:49:24;;;;;;;21.08;13.77;;;10.50;99.90;;;;;;5046939;28;20037;-86
2021/05/30 01:51:50;;;;;;;22.65;15.00;;;10.20;99.90;;;;;;5044268;28;20116;-86
2021/05/30 01:54:18;;;;;;;24.00;14.85;;;10.10;99.90;;;;;;5045881;28;20048;-86
2021/05/30 01:56:56;;;;;;;22.50;15.82;;;10.10;99.90;;;;;;5029620;28;20044;-86
2021/05/30 01:59:23;;;;;;;20.70;14.45;;;10.10;99.90;;;;;;5032395;28;20040;-86
2021/05/30 02:01:50;;;;;;;21.92;14.43;;;10.10;99.90;;;;;;5026877;28;20037;-86
2021/05/30 02:04:18;;;;;;;18.63;15.23;;;10.10;99.90;;;;;;5044697;28;20701;-86
2021/05/30 02:06:49;;;;;;;20.77;14.60;;;10.00;99.90;;;;;;5043912;28;21115;-86
2021/05/30 02:09:16;;;;;;;19.20;14.23;;;10.00;99.90;;;;;;5045592;28;20083;-85
2021/05/30 02:11:42;;;;;;;17.70;13.32;;;10.00;99.90;;;;;;5029425;28;20037;-86
2021/05/30 02:14:09;;;;;;;18.88;14.63;;;10.00;99.90;;;;;;5046622;28;20040;-86
2021/05/30 02:16:37;;;;;;;18.55;14.15;;;9.90;99.90;;;;;;5043536;28;20041;-85
2021/05/30 02:19:03;;;;;;;21.27;13.65;;;10.00;99.90;;;;;;5045899;28;20564;-85
2021/05/30 02:21:43;;;;;;;20.33;14.15;;;9.90;99.90;;;;;;5044039;28;20396;-85
2021/05/30 02:24:11;;;;;;;24.05;14.25;;;9.90;99.90;;;;;;5042581;28;20040;-84
2021/05/30 02:26:36;;;;;;;21.27;14.77;;;9.90;99.90;;;;;;5047875;28;20040;-86
2021/05/30 02:29:04;;;;;;;21.00;14.27;;;9.80;99.90;;;;;;5047622;28;20810;-85
2021/05/30 02:31:29;;;;;;;18.23;14.82;;;9.80;99.90;;;;;;5034684;28;20025;-86
2021/05/30 02:33:56;;;;;;;20.20;13.20;;;9.80;99.90;;;;;;5049100;28;20040;-85
2021/05/30 02:36:22;;;;;;;20.30;14.15;;;9.80;99.90;;;;;;5033204;28;20036;-85
2021/05/30 02:38:47;;;;;;;22.23;13.98;;;9.80;99.90;;;;;;5052648;28;20078;-85
2021/05/30 02:41:14;;;;;;;17.13;13.32;;;9.70;99.90;;;;;;5050672;28;20048;-85
2021/05/30 02:43:39;;;;;;;17.00;13.23;;;9.70;99.90;;;;;;5031627;28;20043;-85
2021/05/30 02:46:05;;;;;;;15.88;13.77;;;9.70;99.90;;;;;;5047996;28;20084;-85
2021/05/30 02:48:31;;;;;;;20.60;14.50;;;9.70;99.90;;;;;;5032416;28;20136;-85
2021/05/30 02:50:59;;;;;;;23.55;13.88;;;9.60;99.90;;;;;;5031785;28;20094;-85
2021/05/30 02:53:33;;;;;;;21.75;13.40;;;9.60;99.90;;;;;;5048315;28;20124;-84
2021/05/30 02:56:03;;;;;;;19.63;13.93;;;9.60;99.90;;;;;;5048847;28;20063;-85
2021/05/30 02:58:29;;;;;;;21.10;13.40;;;9.60;99.90;;;;;;5046398;28;20044;-85
2021/05/30 03:00:56;;;;;;;19.98;12.82;;;9.50;99.90;;;;;;5049621;28;20142;-85
2021/05/30 03:03:23;;;;;;;20.02;13.75;;;9.50;99.90;;;;;;5049882;28;20135;-85
2021/05/30 03:05:49;;;;;;;18.02;12.80;;;9.50;99.90;;;;;;5033899;28;20045;-85
2021/05/30 03:08:14;;;;;;;21.23;13.05;;;9.50;99.90;;;;;;5051545;28;20463;-85
2021/05/30 03:10:41;;;;;;;16.67;13.02;;;9.40;99.90;;;;;;5032663;28;20060;-85
2021/05/30 03:13:07;;;;;;;17.30;13.05;;;9.40;99.90;;;;;;5032060;28;20036;-86
2021/05/30 03:15:34;;;;;;;22.00;14.48;;;9.30;99.90;;;;;;5028359;28;20067;-85
2021/05/30 03:17:59;;;;;;;19.55;13.88;;;9.30;99.90;;;;;;5046273;28;20037;-85
2021/05/30 03:20:25;;;;;;;16.90;11.95;;;9.30;99.90;;;;;;5044227;28;20099;-85
2021/05/30 03:22:51;;;;;;;19.70;12.02;;;9.20;99.90;;;;;;5046884;28;20037;-85
2021/05/30 03:25:17;;;;;;;16.63;11.65;;;9.30;99.90;;;;;;5044488;28;20072;-86
2021/05/30 03:27:43;;;;;;;17.58;12.25;;;9.10;99.90;;;;;;5045375;28;20063;-85
2021/05/30 03:30:10;;;;;;;20.92;11.68;;;9.20;99.90;;;;;;5045081;28;20036;-85
2021/05/30 03:32:36;;;;;;;18.55;12.05;;;9.10;99.90;;;;;;5043629;28;20499;-85
2021/05/30 03:35:02;;;;;;;15.75;10.82;;;9.10;99.90;;;;;;5044573;28;20072;-85
2021/05/30 03:37:28;;;;;;;21.15;12.18;;;9.10;99.90;;;;;;5045390;28;20029;-85
2021/05/30 03:39:59;;;;;;;15.52;12.82;;;9.10;99.90;;;;;;5046455;28;20036;-85
2021/05/30 03:42:35;;;;;;;16.23;11.63;;;9.10;99.90;;;;;;5045357;28;20040;-85
2021/05/30 03:45:01;;;;;;;;;;;9.00;99.90;;;;;;5044127;28;20531;-84
2021/05/30 03:47:27;;;;;;;18.95;12.40;;;9.00;99.90;;;;;;5046043;28;20036;-84
2021/05/30 03:49:52;;;;;;;18.63;10.27;;;9.10;99.90;;;;;;5045004;28;20043;-84
2021/05/30 03:52:18;;;;;;;16.90;11.32;;;9.00;99.90;;;;;;5029867;28;20112;-85
2021/05/30 03:54:44;;;;;;;16.95;10.63;;;9.00;99.90;;;;;;5045659;28;20072;-85
2021/05/30 03:57:10;;;;;;;15.52;11.65;;;9.00;99.90;;;;;;5045514;28;20032;-85
2021/05/30 03:59:37;;;;;;;22.38;11.77;;;9.10;99.90;;;;;;5045813;28;20110;-85
2021/05/30 04:02:04;;;;;;;23.20;11.07;;;9.10;99.90;;;;;;5042455;28;20039;-85
2021/05/30 04:04:31;;;;;;;16.77;11.43;;;9.10;99.90;;;;;;5032357;28;20035;-85
2021/05/30 04:06:56;;;;;;;18.00;11.32;;;9.10;99.90;;;;;;5046959;28;20032;-85
2021/05/30 04:09:22;;;;;;;17.15;12.57;;;9.10;99.90;;;;;;5045272;28;20510;-84
2021/05/30 04:11:48;;;;;;;15.40;10.57;;;9.20;99.90;;;;;;5045397;28;20099;-85
2021/05/30 04:14:14;;;;;;;20.13;11.25;;;9.20;99.90;;;;;;5047639;28;21266;-85
2021/05/30 04:16:39;;;;;;;15.18;11.02;;;9.30;99.90;;;;;;5044644;28;20064;-86
2021/05/30 04:19:05;;;;;;;15.40;11.63;;;9.30;99.90;;;;;;5043620;28;20060;-85
2021/05/30 04:21:31;;;;;;;16.95;11.75;;;9.50;99.90;;;;;;5046775;28;20063;-85
2021/05/30 04:23:56;;;;;;;22.35;12.48;;;9.60;99.90;;;;;;5047930;28;20039;-85
2021/05/30 04:26:22;;;;;;;14.20;11.18;;;9.70;99.90;;;;;;5044414;28;20037;-85
2021/05/30 04:28:47;;;;;;;17.63;11.50;;;9.90;99.90;;;;;;5047433;28;20051;-85
2021/05/30 04:31:15;;;;;;;17.50;11.80;;;10.00;99.90;;;;;;5047188;28;20063;-85
2021/05/30 04:33:41;;;;;;;16.30;10.85;;;10.10;99.90;;;;;;5046573;28;20117;-85
2021/05/30 04:36:06;;;;;;;15.90;10.50;;;10.30;99.90;;;;;;5026904;28;20098;-85
2021/05/30 04:38:32;;;;;;;19.23;11.02;;;10.90;99.90;;;;;;5044868;28;20537;-85
2021/05/30 04:41:00;;;;;;;18.02;12.27;;;10.40;99.90;;;;;;5047204;28;20044;-85
2021/05/30 04:43:27;;;;;;;18.23;11.85;;;10.50;99.90;;;;;;5046491;28;20436;-85
2021/05/30 04:45:54;;;;;;;19.10;10.90;;;10.80;99.90;;;;;;5045829;28;20071;-85
2021/05/30 04:48:20;;;;;;;17.70;10.68;;;11.70;99.90;;;;;;5052402;28;20096;-85
2021/05/30 04:51:05;;;;;;;15.70;9.68;;;12.30;99.90;;;;;;5052649;28;20796;-85
2021/05/30 04:53:44;;;;;;;13.00;9.75;;;13.40;99.90;;;;;;5051986;28;20088;-85
2021/05/30 04:56:11;;;;;;;15.63;9.23;;;14.40;97.20;;;;;;5052345;28;20041;-85
2021/05/30 04:58:37;;;;;;;16.35;8.98;;;15.10;95.20;;;;;;5071022;28;20122;-85
2021/05/30 05:01:05;;;;;;;14.55;8.45;;;15.70;94.40;;;;;;5051146;28;20067;-85
2021/05/30 05:03:32;;;;;;;18.73;8.77;;;15.70;93.10;;;;;;5052968;28;20057;-85
2021/05/30 05:05:58;;;;;;;17.98;9.48;;;16.10;92.40;;;;;;5034034;28;20037;-85
2021/05/30 05:08:24;;;;;;;17.50;9.40;;;16.50;91.60;;;;;;5050430;28;20033;-85
2021/05/30 05:10:50;;;;;;;20.08;9.20;;;16.70;90.70;;;;;;5050523;28;20060;-85
2021/05/30 05:13:16;;;;;;;16.63;8.93;;;17.00;90.30;;;;;;5052148;28;20040;-85
2021/05/30 05:15:49;;;;;;;17.42;9.27;;;17.00;89.40;;;;;;5049342;28;20041;-83
2021/05/30 05:18:22;;;;;;;15.23;8.73;;;17.10;89.20;;;;;;5049313;28;20052;-83
2021/05/30 05:20:48;;;;;;;16.02;10.80;;;17.30;90.20;;;;;;5037526;28;20051;-83
2021/05/30 05:23:18;;;;;;;14.07;10.70;;;17.00;90.40;;;;;;5035351;28;20033;-85
2021/05/30 05:25:47;;;;;;;24.80;11.13;;;17.00;90.90;;;;;;5051043;28;20041;-84
2021/05/30 05:28:13;;;;;;;18.77;9.52;;;16.80;90.40;;;;;;5036004;28;20086;-84
2021/05/30 05:30:38;;;;;;;17.70;10.38;;;16.50;90.70;;;;;;5050747;28;20041;-84
2021/05/30 05:33:05;;;;;;;21.25;10.95;;;16.40;91.30;;;;;;5050560;28;20040;-84
2021/05/30 05:35:31;;;;;;;19.48;10.18;;;16.40;91.90;;;;;;5049337;28;20075;-84
2021/05/30 05:38:00;;;;;;;15.13;10.07;;;16.30;91.60;;;;;;5051874;28;20064;-84
2021/05/30 05:40:27;;;;;;;16.00;9.63;;;16.30;91.60;;;;;;5035418;28;20943;-85
2021/05/30 05:42:54;;;;;;;17.67;10.52;;;16.00;91.60;;;;;;5035148;28;20060;-84
2021/05/30 05:45:22;;;;;;;16.80;10.20;;;16.10;91.80;;;;;;5049903;28;20044;-86
2021/05/30 05:47:56;;;;;;;19.63;10.02;;;16.10;92.00;;;;;;5054876;28;20032;-86
2021/05/30 05:50:25;;;;;;;18.08;10.55;;;16.20;91.80;;;;;;5045760;28;20483;-86
2021/05/30 05:52:51;;;;;;;17.77;10.95;;;16.20;91.90;;;;;;5029859;28;20683;-86
2021/05/30 05:55:20;;;;;;;13.98;9.68;;;16.30;91.30;;;;;;5050455;28;20044;-86
2021/05/30 05:57:48;;;;;;;20.63;10.27;;;16.40;91.50;;;;;;5034912;28;20085;-85
2021/05/30 06:00:19;;;;;;;18.02;9.15;;;16.50;91.60;;;;;;5049470;28;20063;-85
2021/05/30 06:02:46;;;;;;;15.23;9.18;;;16.60;91.10;;;;;;5049299;28;20487;-85
2021/05/30 06:05:17;;;;;;;14.95;9.35;;;16.70;90.60;;;;;;5049006;28;20033;-86
2021/05/30 06:07:44;;;;;;;14.20;9.50;;;16.60;90.60;;;;;;5048585;28;20040;-86
2021/05/30 06:10:24;;;;;;;13.82;8.60;;;16.80;90.60;;;;;;5048666;28;20131;-86
2021/05/30 06:12:55;;;;;;;15.85;9.60;;;17.20;90.20;;;;;;5047802;28;20045;-86
2021/05/30 06:15:23;;;;;;;16.00;8.55;;;16.60;91.00;;;;;;5048631;28;20056;-85
2021/05/30 06:17:53;;;;;;;14.50;8.73;;;16.70;90.90;;;;;;5030666;28;20037;-86
2021/05/30 06:20:19;;;;;;;17.48;10.05;;;17.20;90.90;;;;;;5048649;28;20064;-86
2021/05/30 06:22:45;;;;;;;18.67;10.15;;;17.20;90.80;;;;;;5048170;28;20068;-86
2021/05/30 06:25:11;;;;;;;11.82;8.20;;;17.20;90.40;;;;;;5048288;28;20033;-86
2021/05/30 06:27:37;;;;;;;16.35;9.82;;;17.40;90.00;;;;;;5048240;28;20453;-86
2021/05/30 06:30:04;;;;;;;13.57;8.57;;;17.60;90.20;;;;;;5030970;28;20040;-86
2021/05/30 06:32:31;;;;;;;16.77;8.93;;;17.60;88.20;;;;;;5031854;28;20044;-86
2021/05/30 06:34:56;;;;;;;16.70;8.68;;;17.90;88.80;;;;;;5045069;28;20045;-86
2021/05/30 06:37:22;;;;;;;11.82;8.27;;;17.50;87.60;;;;;;5043528;28;20041;-85
2021/05/30 06:39:47;;;;;;;17.05;9.18;;;17.40;88.10;;;;;;5045197;28;20059;-86
2021/05/30 06:42:13;;;;;;;13.63;9.02;;;17.60;89.20;;;;;;5044437;28;20048;-86
2021/05/30 06:44:39;;;;;;;17.15;9.32;;;18.10;89.80;;;;;;5047214;28;20033;-87
2021/05/30 06:47:05;;;;;;;15.38;8.50;;;18.00;88.50;;;;;;5027447;28;20067;-87
2021/05/30 06:49:36;;;;;;;11.73;8.52;;;17.80;88.00;;;;;;5048310;28;20094;-86
2021/05/30 06:52:03;;;;;;;14.15;8.45;;;17.70;87.70;;;;;;5045902;28;20033;-86
2021/05/30 06:54:28;;;;;;;16.48;8.32;;;17.80;87.80;;;;;;5046930;28;20037;-86
2021/05/30 07:04:22;;;;;;;12.35;8.88;;;18.10;85.40;;;;;;4944435;28;20094;-87
2021/05/30 07:06:48;;;;;;;15.43;8.40;;;18.10;86.20;;;;;;4930940;28;20566;-86
2021/05/30 07:09:14;;;;;;;12.18;9.15;;;17.90;86.40;;;;;;5035337;28;20057;-85
2021/05/30 07:11:42;;;;;;;17.42;8.77;;;18.10;86.70;;;;;;5026808;28;20036;-86
2021/05/30 07:14:08;;;;;;;12.98;9.45;;;18.30;86.40;;;;;;5042440;28;20415;-87
2021/05/30 07:21:11;;;;;;;15.73;8.80;;;18.20;87.10;;;;;;5042447;28;20438;-87
2021/05/30 07:24:35;;;;;;;14.70;9.65;;;18.30;86.50;;;;;;4965506;28;20057;-86
2021/05/30 07:32:18;;;;;;;14.65;9.00;;;18.40;84.00;;;;;;4978109;28;21404;-86
2021/05/30 07:42:49;;;;;;;12.30;9.55;;;18.50;84.10;;;;;;4941075;28;20050;-86
2021/05/30 07:45:54;;;;;;;13.05;8.93;;;18.40;84.00;;;;;;4866031;29;20065;-88
2021/05/30 07:49:04;;;;;;;16.00;10.13;;;18.70;85.70;;;;;;4867237;29;20064;-86
2021/05/30 07:52:04;;;;;;;17.90;10.63;;;18.70;83.70;;;;;;4852630;29;20132;-88
2021/05/30 08:10:06;;;;;;;13.05;9.80;;;18.50;85.80;;;;;;4909830;28;20257;-85
2021/05/30 08:35:50;;;;;;;18.13;11.27;;;20.20;81.90;;;;;;5047203;28;20116;-85
2021/05/30 08:39:12;;;;;;;16.73;11.45;;;20.30;81.00;;;;;;5042925;28;20083;-87
2021/05/30 08:41:40;;;;;;;10.07;8.85;;;20.00;80.30;;;;;;5059980;28;20041;-87
2021/05/30 08:44:06;;;;;;;15.02;9.07;;;19.90;81.60;;;;;;5043613;28;20491;-86
2021/05/30 08:46:32;;;;;;;13.60;8.95;;;19.80;82.30;;;;;;5041792;28;20033;-85
2021/05/30 08:49:01;;;;;;;12.52;7.53;;;19.80;83.50;;;;;;5041992;28;20095;-86
2021/05/30 08:51:27;;;;;;;12.77;8.13;;;19.50;81.60;;;;;;5042287;28;20045;-86
2021/05/30 08:53:52;;;;;;;13.80;8.68;;;19.70;82.60;;;;;;5042837;28;20039;-87
2021/05/30 08:56:19;;;;;;;12.27;8.40;;;19.70;82.10;;;;;;5041232;28;20048;-88
2021/05/30 08:58:49;;;;;;;16.42;8.50;;;19.80;81.10;;;;;;5040655;28;20032;-87
2021/05/30 09:01:16;;;;;;;13.70;8.27;;;19.60;81.00;;;;;;5040056;28;20033;-88
2021/05/30 09:04:05;;;;;;;12.80;7.75;;;19.60;81.30;;;;;;5026195;28;20033;-87
2021/05/30 09:06:31;;;;;;;15.85;8.63;;;19.80;81.30;;;;;;5043601;28;20032;-90
2021/05/30 09:08:57;;;;;;;9.10;8.05;;;20.00;83.20;;;;;;5049552;28;20037;-87
2021/05/30 09:11:46;;;;;;;13.18;8.52;;;20.40;82.80;;;;;;5048658;28;20037;-87
2021/05/30 09:14:18;;;;;;;15.45;9.27;;;20.20;81.90;;;;;;5045675;28;20075;-85
2021/05/30 09:16:53;;;;;;;15.18;9.90;;;20.30;82.80;;;;;;5030768;28;20069;-88
2021/05/30 09:19:37;;;;;;;12.38;7.97;;;20.60;81.30;;;;;;5063031;28;20087;-84
2021/05/30 09:22:20;;;;;;;10.77;7.97;;;20.30;83.20;;;;;;5044916;28;20029;-89
2021/05/30 09:24:52;;;;;;;10.38;7.82;;;20.30;79.10;;;;;;5049004;28;20625;-86
2021/05/30 09:28:04;;;;;;;12.48;9.50;;;20.20;77.60;;;;;;5042067;28;20033;-88
2021/05/30 09:31:05;;;;;;;12.88;8.23;;;20.30;80.80;;;;;;5029544;28;20082;-88
2021/05/30 09:34:52;;;;;;;14.75;9.43;;;20.30;78.30;;;;;;5037701;28;20454;-87
2021/05/30 09:37:18;;;;;;;14.77;9.40;;;20.20;79.20;;;;;;5032085;28;20032;-87
2021/05/30 10:06:04;;;;;;;10.82;7.85;;;21.60;77.90;;;;;;4965097;28;20066;-84
2021/05/30 10:57:55;;;;;;;8.88;4.93;;;22.00;78.30;;;;;;4850341;29;20090;-86
2021/05/30 11:20:03;;;;;;;6.53;3.40;;;22.00;69.60;;;;;;4839798;29;20190;-86
2021/05/30 12:04:56;;;;;;;8.00;3.92;;;23.10;71.90;;;;;;4873471;29;20534;-85
2021/05/30 12:07:25;;;;;;;12.40;5.57;;;23.20;68.80;;;;;;4881365;29;20048;-86
2021/05/30 12:09:56;;;;;;;7.25;3.50;;;23.00;67.10;;;;;;5003425;28;20060;-81
2021/05/30 12:12:22;;;;;;;8.60;4.60;;;23.00;71.60;;;;;;5044176;28;20095;-86
2021/05/30 12:14:47;;;;;;;13.75;4.45;;;22.90;69.00;;;;;;5031572;28;20037;-85
2021/05/30 12:17:13;;;;;;;10.52;4.30;;;22.90;68.80;;;;;;5033146;28;20040;-87
2021/05/30 12:19:45;;;;;;;9.63;4.20;;;22.90;67.30;;;;;;5047301;28;20072;-89
2021/05/30 12:22:20;;;;;;;9.98;5.25;;;22.80;68.00;;;;;;5042591;28;20044;-86
2021/05/30 12:24:46;;;;;;;15.50;4.40;;;22.80;71.90;;;;;;5036848;28;20044;-87
2021/05/30 12:31:14;;;;;;;8.65;4.20;;;22.80;71.00;;;;;;5032447;28;20085;-84
2021/05/30 12:46:06;;;;;;;10.10;3.75;;;23.00;69.70;;;;;;4893397;29;20044;-87
2021/05/30 12:49:49;;;;;;;7.82;3.95;;;23.00;70.00;;;;;;4832269;29;20041;-86
2021/05/30 12:57:04;;;;;;;6.97;3.45;;;23.10;64.60;;;;;;4832420;29;20064;-88
2021/05/30 13:18:42;;;;;;;6.32;3.28;;;22.40;68.70;;;;;;4838406;29;20053;-85
2021/05/30 13:38:09;;;;;;;8.02;3.13;;;22.40;70.90;;;;;;4947873;28;20130;-86
2021/05/30 14:05:04;;;;;;;6.55;3.20;;;23.00;71.60;;;;;;5008465;28;20052;-86
2021/05/30 14:12:58;;;;;;;7.47;3.53;;;22.40;72.70;;;;;;4969684;28;20050;-85
2021/05/30 14:24:46;;;;;;;8.05;3.33;;;21.90;71.30;;;;;;4834842;29;20107;-85
2021/05/30 14:43:07;;;;;;;9.88;5.05;;;21.40;79.30;;;;;;4833232;29;20053;-84
2021/05/30 14:45:36;;;;;;;8.32;4.32;;;21.10;80.50;;;;;;4820991;29;20497;-85
2021/05/30 14:48:02;;;;;;;11.07;4.40;;;21.50;80.80;;;;;;4942701;28;20057;-85
2021/05/30 14:50:28;;;;;;;16.60;6.65;;;21.10;80.40;;;;;;5007412;28;20137;-85
2021/05/30 14:52:56;;;;;;;9.60;4.50;;;21.00;80.30;;;;;;5006612;28;20042;-85
2021/05/30 14:55:23;;;;;;;14.13;5.32;;;21.00;83.60;;;;;;5036159;28;20059;-85
2021/05/30 14:57:48;;;;;;;9.07;4.50;;;21.00;83.20;;;;;;5044671;28;20032;-85
2021/05/30 15:00:16;;;;;;;10.25;4.50;;;21.40;83.20;;;;;;5029242;28;20037;-85
2021/05/30 15:02:42;;;;;;;12.82;4.43;;;21.00;82.60;;;;;;5046870;28;20033;-86
2021/05/30 15:05:14;;;;;;;8.75;4.15;;;20.90;84.40;;;;;;5033211;28;20045;-85
2021/05/30 15:07:41;;;;;;;15.52;5.00;;;20.90;82.30;;;;;;5046249;28;20037;-86
2021/05/30 15:10:08;;;;;;;9.27;4.25;;;20.80;83.80;;;;;;5031680;28;20029;-87
2021/05/30 15:12:34;;;;;;;9.77;4.45;;;20.60;84.20;;;;;;5051286;28;20045;-85
2021/05/30 15:15:00;;;;;;;8.43;4.43;;;20.60;84.90;;;;;;5032801;28;20486;-85
2021/05/30 15:17:26;;;;;;;8.50;5.10;;;20.80;84.20;;;;;;5047919;28;20060;-85
2021/05/30 15:19:52;;;;;;;13.73;5.10;;;20.50;83.20;;;;;;5048674;28;20506;-85
2021/05/30 15:22:18;;;;;;;16.38;4.90;;;20.30;83.40;;;;;;5046134;28;20044;-85
2021/05/30 15:24:43;;;;;;;9.73;4.53;;;20.20;85.40;;;;;;5028871;28;20036;-84
2021/05/30 15:27:09;;;;;;;8.95;4.63;;;20.10;86.70;;;;;;5045055;28;20033;-86
2021/05/30 15:29:35;;;;;;;9.82;4.68;;;20.20;85.90;;;;;;5048161;28;20537;-87
2021/05/30 15:32:01;;;;;;;12.15;5.82;;;20.10;84.60;;;;;;5047157;28;20071;-84
2021/05/30 15:34:27;;;;;;;9.48;4.80;;;20.00;83.20;;;;;;5043477;28;20090;-85
2021/05/30 15:36:53;;;;;;;10.55;4.70;;;20.00;85.20;;;;;;5032740;28;20045;-84
2021/05/30 15:39:19;;;;;;;11.98;5.13;;;19.60;85.20;;;;;;5045767;28;20162;-85
2021/05/30 15:41:45;;;;;;;11.55;5.32;;;19.60;84.80;;;;;;5029125;28;20087;-85
2021/05/30 15:44:12;;;;;;;10.38;4.47;;;19.50;84.00;;;;;;5045407;28;20064;-84
2021/05/30 15:46:38;;;;;;;13.90;5.40;;;19.20;86.00;;;;;;5028488;28;20099;-85
2021/05/30 15:49:04;;;;;;;11.15;4.75;;;19.20;87.50;;;;;;5044488;28;20435;-84
2021/05/30 15:51:32;;;;;;;11.63;4.93;;;19.10;85.80;;;;;;5029690;28;20582;-84
2021/05/30 15:54:12;;;;;;;6.82;4.38;;;19.40;89.60;;;;;;5031509;28;20044;-85
2021/05/30 15:56:38;;;;;;;12.32;4.95;;;19.00;86.30;;;;;;5045458;28;20040;-84
2021/05/30 15:59:04;;;;;;;8.15;4.30;;;19.10;86.70;;;;;;5044102;28;20483;-83
2021/05/30 16:13:36;;;;;;;10.90;4.95;;;18.80;85.20;;;;;;4889567;29;20072;-85
2021/05/30 16:16:21;;;;;;;17.60;4.85;;;18.70;86.00;;;;;;4890193;29;20052;-85
2021/05/30 16:20:01;;;;;;;8.52;3.88;;;18.60;86.90;;;;;;4870943;29;20056;-84
2021/05/30 16:23:17;;;;;;;8.57;4.85;;;18.60;84.90;;;;;;4852560;29;20199;-82
2021/05/30 16:26:15;;;;;;;8.38;4.53;;;18.50;85.70;;;;;;4875044;29;20131;-84
2021/05/30 16:28:44;;;;;;;8.90;4.45;;;18.50;86.40;;;;;;4938070;28;20053;-85
2021/05/30 16:31:10;;;;;;;13.48;4.82;;;18.70;87.10;;;;;;5052377;28;20043;-85
2021/05/30 16:33:38;;;;;;;10.85;4.80;;;18.40;87.90;;;;;;5034542;28;20036;-83
2021/05/30 16:36:05;;;;;;;11.60;3.95;;;18.30;86.40;;;;;;5031038;28;20049;-83
2021/05/30 16:38:31;;;;;;;8.45;3.95;;;18.70;84.90;;;;;;5049985;28;20056;-84
2021/05/30 16:40:57;;;;;;;15.95;6.05;;;18.50;87.40;;;;;;5049171;28;20033;-84
2021/05/30 16:43:24;;;;;;;11.65;4.97;;;18.20;86.90;;;;;;5030489;28;20029;-84
2021/05/30 16:45:49;;;;;;;6.55;4.03;;;18.10;86.70;;;;;;5051770;28;20037;-84
2021/05/30 16:48:16;;;;;;;9.15;4.85;;;18.00;86.50;;;;;;5049377;28;20041;-84
2021/05/30 16:50:42;;;;;;;9.60;4.25;;;17.90;86.40;;;;;;5049799;28;20029;-85
2021/05/30 16:53:09;;;;;;;10.13;4.65;;;17.70;86.30;;;;;;5045754;28;20048;-84
2021/05/30 16:55:35;;;;;;;7.10;3.80;;;18.10;86.80;;;;;;5049754;28;20464;-84
2021/05/30 16:58:01;;;;;;;10.23;4.95;;;17.70;85.60;;;;;;5051995;28;20434;-85
2021/05/30 17:00:27;;;;;;;9.63;4.10;;;17.90;87.00;;;;;;5048779;28;20037;-84
2021/05/30 17:02:53;;;;;;;10.05;5.10;;;17.50;86.40;;;;;;5045028;28;20045;-84
2021/05/30 17:05:18;;;;;;;9.20;4.85;;;17.50;87.50;;;;;;5044531;28;20095;-83
2021/05/30 17:07:44;;;;;;;11.02;4.82;;;17.50;87.50;;;;;;5044777;28;20049;-82
2021/05/30 17:10:10;;;;;;;8.80;5.47;;;17.30;87.30;;;;;;5023310;28;20120;-81
2021/05/30 17:12:36;;;;;;;9.93;5.00;;;17.30;88.20;;;;;;5042815;28;20048;-82
2021/05/30 17:15:22;;;;;;;10.07;4.60;;;17.20;88.10;;;;;;5026775;28;20033;-82
2021/05/30 17:18:08;;;;;;;9.25;4.50;;;17.20;86.70;;;;;;5027356;28;20041;-85
2021/05/30 17:20:35;;;;;;;8.45;4.57;;;17.30;88.20;;;;;;5025086;28;20112;-84
2021/05/30 17:23:00;;;;;;;11.98;4.57;;;17.00;88.50;;;;;;5044495;28;20044;-83
2021/05/30 17:25:26;;;;;;;10.15;4.53;;;17.10;87.60;;;;;;5045971;28;20037;-83
2021/05/30 17:28:42;;;;;;;5.97;3.67;;;17.10;89.20;;;;;;5030430;28;20044;-84
2021/05/30 17:35:25;;;;;;;10.85;4.65;;;17.00;90.00;;;;;;4945717;28;20042;-85
2021/05/30 18:00:46;;;;;;;9.90;3.85;;;16.50;90.20;;;;;;4929456;28;20098;-85
2021/05/30 18:18:51;;;;;;;8.70;3.22;;;16.10;91.10;;;;;;4979431;28;20102;-85
2021/05/30 18:22:39;;;;;;;7.82;3.63;;;16.00;91.40;;;;;;4905924;29;20629;-85
2021/05/30 18:26:10;;;;;;;9.73;4.05;;;16.10;91.30;;;;;;4884613;29;20400;-85
2021/05/30 18:30:03;;;;;;;7.65;4.43;;;16.00;91.90;;;;;;4864165;29;20489;-84
2021/05/30 18:33:33;;;;;;;9.63;4.32;;;15.90;92.10;;;;;;4854655;29;20075;-83
2021/05/30 18:35:59;;;;;;;11.07;4.55;;;15.80;92.00;;;;;;4869316;28;20444;-84
2021/05/30 18:38:25;;;;;;;9.10;4.40;;;15.80;91.90;;;;;;4982909;28;20217;-84
2021/05/30 18:40:52;;;;;;;9.52;4.00;;;15.70;92.00;;;;;;5023070;28;20763;-83
2021/05/30 18:43:22;;;;;;;6.80;4.38;;;15.60;92.10;;;;;;5037690;28;20151;-84
2021/05/30 18:45:48;;;;;;;8.38;4.25;;;15.70;92.30;;;;;;5038094;28;20098;-84
2021/05/30 18:48:14;;;;;;;8.95;4.85;;;15.50;92.40;;;;;;5043024;28;20033;-85
2021/05/30 18:50:43;;;;;;;10.30;4.53;;;15.40;92.40;;;;;;5045213;28;20442;-85
2021/05/30 18:53:12;;;;;;;7.25;3.80;;;15.30;92.80;;;;;;5046168;28;20065;-85
2021/05/30 18:55:39;;;;;;;11.85;4.32;;;15.30;93.40;;;;;;5025279;28;20056;-84
2021/05/30 18:58:05;;;;;;;10.18;4.70;;;15.20;93.30;;;;;;5043000;28;20051;-85
2021/05/30 19:00:33;;;;;;;9.68;4.65;;;15.10;93.60;;;;;;5049623;28;20039;-83
2021/05/30 19:02:59;;;;;;;8.32;4.78;;;15.00;93.90;;;;;;5023407;28;20055;-83